Observations for BOLOGNA BORGO AFB, Italy (LIPE)

LIPE 100220Z 26009KT CAVOK 10/M01 Q1011 
LIPE 100150Z 26014KT CAVOK 10/M00 Q1011 
LIPE 100120Z 26011KT CAVOK 10/M01 Q1011 
LIPE 100050Z 27010KT CAVOK 11/M01 Q1010 
LIPE 100020Z 28013KT CAVOK 11/M01 Q1010 
LIPE 092350Z 27010KT CAVOK 11/M02 Q1010 
LIPE 092320Z 28013KT CAVOK 12/M02 Q1010 
LIPE 092250Z 27013KT CAVOK 12/M02 Q1009 
LIPE 092220Z 27012KT CAVOK 12/M03 Q1009 
LIPE 092150Z 26013KT CAVOK 12/M02 Q1009 
LIPE 092120Z 26010KT CAVOK 12/M02 Q1009 
LIPE 092050Z 25010KT CAVOK 11/M01 Q1009 
LIPE 092020Z 26007KT 210V280 CAVOK 11/M00 Q1009 
LIPE 091950Z 26009KT CAVOK 11/01 Q1009  
LIPE 091920Z VRB04KT CAVOK 07/02 Q1008  
LIPE 091850Z 23005KT CAVOK 04/03 Q1008  
LIPE 091820Z 29004KT CAVOK 04/03 Q1008  
LIPE 091750Z 34003KT 310V020 CAVOK 04/03 Q1008  
LIPE 091720Z VRB03KT CAVOK 05/03 Q1008  
LIPE 091650Z 27005KT CAVOK 07/04 Q1008  
LIPE 091620Z 23008KT 5000 BR NSC 07/04 Q1007
LIPE 091550Z 23006KT 5000 BR NSC 07/05 Q1008
LIPE 091520Z 26005KT 5000 BR NSC 07/05 Q1008
LIPE 091450Z 29005KT 6000 NSC 08/05 Q1008   
LIPE 091420Z 32003KT 290V360 7000 NSC 08/05 Q1008   
LIPE 091350Z 33004KT 300V010 7000 FEW005 08/05 Q1007
LIPE 091320Z 33005KT 300V360 7000 FEW005 08/05 Q1007
LIPE 091250Z 01006KT 310V040 7000 FEW005 08/05 Q1007
LIPE 091220Z 30005KT 260V340 8000 NSC 10/04 Q1006   
LIPE 091150Z 28006KT 240V310 6000 NSC 08/04 Q1007   
LIPE 091120Z 29006KT 260V320 5000 BR NSC 06/04 Q1007
LIPE 091050Z 29005KT 260V320 3000 BR FEW002 05/03 Q1007 
LIPE 091020Z 28004KT 240V320 0800 R12/1400D R30/1300U FG BKN002 03/02 Q1007 
LIPE 090950Z VRB02KT 0400 R12/0500N R30/0500D FG BKN002 02/02 Q1007 
LIPE 090920Z VRB02KT 0400 R12/0450D R30/0500V1200D BCFG BKN002 02/02 Q1007  
LIPE 090850Z 35003KT 6000 SCT004 02/01 Q1007
LIPE 090820Z VRB02KT 8000 NSC 01/M00 Q1007  
LIPE 090750Z VRB02KT 8000 NSC 01/M00 Q1007  
LIPE 090720Z VRB02KT CAVOK 00/M02 Q1007 
LIPE 090650Z VRB02KT CAVOK 00/M02 Q1007 
LIPE 090620Z 27003KT CAVOK 00/M02 Q1008 
LIPE 090550Z VRB02KT CAVOK 01/M02 Q1008 
LIPE 090520Z VRB01KT CAVOK 01/M02 Q1008 
LIPE 090450Z VRB01KT CAVOK 01/M02 Q1008 
LIPE 090420Z 04004KT CAVOK 03/M02 Q1009 
LIPE 090350Z 08003KT 050V150 CAVOK 03/M02 Q1009 
LIPE 090320Z VRB02KT CAVOK 04/M02 Q1010 
LIPE 090250Z 20007KT CAVOK 06/M02 Q1011 
LIPE 090220Z 20008KT CAVOK 07/M02 Q1012 
LIPE 090150Z 20005KT 160V240 CAVOK 05/M03 Q1012